Overseas Santorini — WOSI — position and weather

sailwx.info

Track history (hours):
 
Tides and Currents Weather Stations Pressure Air Temp Water Temp Dewpoint Dewpoint Depression Visibility Wind Speed Wind Dir Waves Ship Positions

Overseas Santorini

Owner: Overseas Santorini, Tampa, FL. More information available from US FCC via Universal Licensing System and Coast Guard Vessel Documentation Center.

Last reported at 2018-May-19 15:00 UTC. Time now 2018-May-23 03:40 UTC.
Position N 25°48' W 077°24'.

Length 183 m; draft 8.3 m.

Type: Tanker. MMSI: 303270000.

Wind from 110 at 17 knots

Barometer 1016.3 mb
Air temperature 26.0 ° C
Visibility: greater than 10.8 NM
Dewpoint 24.6 ° C

Date/timePositionNaut miles runAvg speedWind from/ knotsBaromVisibWave heightAir tempDewpointWater temp
2018-May-19 15:00N 25°48' W 077°24'11211.5 110 / 171016.310.8 26.024.6
2018-May-19 05:16N 25°46' W 079°28'516.0
2018-May-19 04:58N 25°41' W 079°28'18713.4
2018-May-18 15:00N 23°30' W 081°54'63013.8 090 / 81013.110.8 27.024.3
2018-May-16 17:21N 25°34' W 093°13'713.9
2018-May-16 16:52N 25°36' W 093°20'4914.0
2018-May-16 13:23N 25°46' W 094°13'614.0
2018-May-16 12:59N 25°47' W 094°19'714.1
2018-May-16 12:29N 25°48' W 094°27'714.1
2018-May-16 11:59N 25°50' W 094°34'1214.0
2018-May-16 11:10N 25°52' W 094°47'313.5
2018-May-16 10:58N 25°52' W 094°50'813.2
2018-May-16 10:21N 25°54' W 094°59'513.3
2018-May-16 09:57N 25°55' W 095°05'6410.1
2018-May-16 03:38N 26°40' W 095°55'107 4.3
2018-May-15 02:43N 27°49' W 097°26'0 0.0
2018-May-15 00:20N 27°49' W 097°26'  
2018-May-10 09:37N 27°39' W 095°32'213.6
2018-May-10 09:28N 27°39' W 095°29'713.6
2018-May-10 08:59N 27°39' W 095°22'813.7
2018-May-10 08:22N 27°40' W 095°12'713.9
2018-May-10 07:51N 27°41' W 095°04'1113.7
2018-May-10 07:02N 27°42' W 094°52'313.6
2018-May-10 06:48N 27°42' W 094°48'413.5
2018-May-10 06:30N 27°42' W 094°44'713.4
2018-May-10 06:00N 27°43' W 094°36'2913.1
2018-May-10 03:49N 27°45' W 094°04'412.8
2018-May-10 03:30N 27°46' W 093°59'612.8
2018-May-10 03:00N 27°47' W 093°52'612.8
2018-May-10 02:30N 27°47' W 093°45'712.8
2018-May-10 01:58N 27°47' W 093°37'1813.3
2018-May-10 00:37N 27°48' W 093°17'213.2
2018-May-10 00:28N 27°49' W 093°15'713.3
2018-May-09 23:59N 27°49' W 093°08'713.5
2018-May-09 23:28N 27°49' W 092°60'1313.3
2018-May-09 22:30N 27°51' W 092°45'  
Track history (hours):
 
Tides and Currents Weather Stations Pressure Air Temp Water Temp Dewpoint Dewpoint Depression Visibility Wind Speed Wind Dir Waves Ship Positions

Overseas Santorini

Owner: Overseas Santorini, Tampa, FL. More information available from US FCC via Universal Licensing System and Coast Guard Vessel Documentation Center.

Last reported at 2018-May-19 15:00 UTC. Time now 2018-May-23 03:40 UTC.
Position N 25°48' W 077°24'.

Length 183 m; draft 8.3 m.

Type: Tanker. MMSI: 303270000.

Wind from 110 at 17 knots

Barometer 1016.3 mb
Air temperature 26.0 ° C
Visibility: greater than 10.8 NM
Dewpoint 24.6 ° C

Date/timePositionNaut miles runAvg speedWind from/ knotsBaromVisibWave heightAir tempDewpointWater temp
2018-May-19 15:00N 25°48' W 077°24'11211.5 110 / 171016.310.8 26.024.6
2018-May-19 05:16N 25°46' W 079°28'516.0
2018-May-19 04:58N 25°41' W 079°28'18713.4
2018-May-18 15:00N 23°30' W 081°54'63013.8 090 / 81013.110.8 27.024.3
2018-May-16 17:21N 25°34' W 093°13'713.9
2018-May-16 16:52N 25°36' W 093°20'4914.0
2018-May-16 13:23N 25°46' W 094°13'614.0
2018-May-16 12:59N 25°47' W 094°19'714.1
2018-May-16 12:29N 25°48' W 094°27'714.1
2018-May-16 11:59N 25°50' W 094°34'1214.0
2018-May-16 11:10N 25°52' W 094°47'313.5
2018-May-16 10:58N 25°52' W 094°50'813.2
2018-May-16 10:21N 25°54' W 094°59'513.3
2018-May-16 09:57N 25°55' W 095°05'6410.1
2018-May-16 03:38N 26°40' W 095°55'107 4.3
2018-May-15 02:43N 27°49' W 097°26'0 0.0
2018-May-15 00:20N 27°49' W 097°26'  
2018-May-10 09:37N 27°39' W 095°32'213.6
2018-May-10 09:28N 27°39' W 095°29'713.6
2018-May-10 08:59N 27°39' W 095°22'813.7
2018-May-10 08:22N 27°40' W 095°12'713.9
2018-May-10 07:51N 27°41' W 095°04'1113.7
2018-May-10 07:02N 27°42' W 094°52'313.6
2018-May-10 06:48N 27°42' W 094°48'413.5
2018-May-10 06:30N 27°42' W 094°44'713.4
2018-May-10 06:00N 27°43' W 094°36'2913.1
2018-May-10 03:49N 27°45' W 094°04'412.8
2018-May-10 03:30N 27°46' W 093°59'612.8
2018-May-10 03:00N 27°47' W 093°52'612.8
2018-May-10 02:30N 27°47' W 093°45'712.8
2018-May-10 01:58N 27°47' W 093°37'1813.3
2018-May-10 00:37N 27°48' W 093°17'213.2
2018-May-10 00:28N 27°49' W 093°15'713.3
2018-May-09 23:59N 27°49' W 093°08'713.5
2018-May-09 23:28N 27°49' W 092°60'1313.3
2018-May-09 22:30N 27°51' W 092°45'  

Dump ship's entire track history